• °C
  • Pobieranie danych...
wx


PRINT OUT SECTION, show »

TAF EPBC 270200Z NIL=

TAF EPCE 271100Z 2712/2721 VRB02KT 5000 BR BKN005 OVC015 TEMPO
2712/2715 1500 SNRA BR BKN003 BKN010 PROB30 TEMPO 2715/2718 0400
FG BKN002=

TAF EPCE 271400Z 2715/2724 VRB02KT 9999 BKN007 OVC030 TEMPO 2715/2724
5000 BR BKN003 BKN010 PROB30 TEMPO 2715/2718 0400 FG BKN002=

TAF EPDA 271100Z 2712/2721 12005KT 8000 BKN034 TEMPO 2715/2721 3000
BR PROB30 2715/2721 0800 FZFG=

TAF EPDA 271400Z 2715/2724 14005KT 8000 BKN034 TEMPO 2715/2724 5000
BR PROB30 2715/2724 3000 MIFG BR=

TAF EPDE 270200Z NIL=

TAF EPIR 270200Z NIL=

TAF EPKS 271100Z 2712/2721 18006KT 2000 BR OVC005
BECMG 2712/2714 12005KT 5000 BR BKN010
PROB30 TEMPO 2718/2721 2000 BR BKN006=

TAF COR EPKS 271438Z 2715/2724 14006KT 1500 BR OVC004
BECMG 2715/2716 1000 BR OVC003
PROB30 TEMPO 2716/2724 0500 FG =

TAF EPKS 270208Z 2715/2724 14006KT 1500 BR OVC004
BECMG 2715/2716 1000 BR OVC003
PROB30 TEMPO 2716/2724 0500 FG=

TAF COR EPKS 271438Z 2715/2724 14006KT 1500 BR OVC004
BECMG 2715/2716 1000 BR OVC003
PROB30 TEMPO 2716/2724 0500 FG=

TAF EPLK 271100Z 2712/2721 22006KT 3000 BR BKN004
BECMG 2712/2714 8000 BKN020
TEMPO 2718/2721 3000 BR BKN005=

TAF EPLK 271400Z 2715/2724 16006KT 6000 BKN006
BECMG 2715/2717 SCT012
TEMPO 2720/2724 4000 BR BKN006=

TAF EPLY 271100Z 2712/2721 22006KT 5000 BR BKN006 OVC015=

TAF EPLY 271400Z 2715/2724 16004KT 3000 BR BKN005 OVC015=

TAF EPMB 270200Z NIL=

TAF EPMI 271100Z 2712/2721 12006KT 9999 BKN030
PROB30 2717/2721 4000 RASN BR BKN004=

TAF EPMI 271400Z 2715/2724 12006KT 9999 BKN030
PROB30 2718/2724 4000 RASN BR BKN004=

TAF EPMM 271100Z 2712/2721 27010KT 3000 RASN BR BKN003 OVC010
BECMG 2712/2714 5000 BR BKN005 OVC015=

TAF EPMM 271400Z 2715/2724 24012KT 8000 BKN012
TEMPO 2720/2724 3000 BR BKN005=

TAF EPNA 270200Z NIL=

TAF EPOK 271100Z 2712/2721 VRB03KT 6000 -RA BKN014 TEMPO 2712/2720
3000 -RASN BR BKN005 OVC010 PROB30 TEMPO 2712/2716 2000 SNRA BR
BKN003=

TAF EPOK 271400Z 2715/2724 30006KT 5000 -RA BR BKN014 TEMPO 2715/2720
VRB03KT 3000 -RA RASN BR BKN004 OVC010 BECMG 2721/2723 24004KT =

TAF EPPR 270200Z NIL=

TAF EPPW 271105Z 2712/2721 VRB03KT 5000 BR BKN012 TEMPO 2712/2715
BKN006 BECMG 2717/2720 3000 BR=

TAF COR EPPW 270237Z 2715/2724 VRB03KT 4000 BR BKN007 TEMPO 2715/2724
2000 BR MIFG BKN004 PROB30 TEMPO 2715/2724 0800 FG =

TAF COR EPPW 270237Z 2715/2724 VRB03KT 4000 BR BKN007 TEMPO 2715/2724
2000 BR MIFG BKN004 PROB30 TEMPO 2715/2724 0800 FG=

TAF COR EPPW 271440Z 2715/2724 VRB03KT 4000 BR BKN007 TEMPO 2715/2724
2000 BR MIFG BKN004 PROB30 TEMPO 2715/2724 0800 FG=

TAF COR EPPW 271440Z 2715/2724 VRB03KT 4000 BR BKN007 TEMPO 2715/2724
2000 BR MIFG BKN004 PROB30 TEMPO 2715/2724 0800 FG =

TAF EPPW 271400Z 2715/2724 VRB03KT 4000 BR BKN007 TEMPO 2715/2724
2000 BR MIFG BKN004=

TAF EPRA 270200Z NIL=

TAF EPSN 271100Z 2712/2721 15006KT CAVOK
BECMG 2717/2720 BKN020
PROB30 2718/2721 4000 RASN BR BKN006 OVC012=

TAF EPSN 271400Z 2715/2724 15006KT CAVOK
BECMG 2717/2720 BKN020
PROB30 2718/2724 4000 RASN BR BKN006 OVC012=

TAF EPTM 271100Z 2712/2721 24008KT 8000 BKN005 OVC012 BECMG 2713/2715
9999 SCT020 PROB30 TEMPO 2717/2721 4000 BR BKN006=

TAF EPTM 271400Z 2715/2724 VRB02KT 7000 BKN006 BKN014 TEMPO 2717/2724
4000 BR BKN004=



IMGW-PIB Sites